sensor_id;sensor_type;location;lat;lon;timestamp;temperature;humidity
20610;DHT22;10463;52.378;9.688;2023-07-13T00:00:32;33.60;23.80
20610;DHT22;10463;52.378;9.688;2023-07-13T00:03:17;33.60;23.80
20610;DHT22;10463;52.378;9.688;2023-07-13T00:06:02;33.60;23.80
20610;DHT22;10463;52.378;9.688;2023-07-13T00:08:47;33.60;23.80
20610;DHT22;10463;52.378;9.688;2023-07-13T00:11:34;33.60;23.80
20610;DHT22;10463;52.378;9.688;2023-07-13T00:14:20;33.60;23.80
20610;DHT22;10463;52.378;9.688;2023-07-13T00:17:05;33.50;23.80
20610;DHT22;10463;52.378;9.688;2023-07-13T00:19:50;33.50;23.80
20610;DHT22;10463;52.378;9.688;2023-07-13T00:22:34;33.50;23.80
20610;DHT22;10463;52.378;9.688;2023-07-13T00:25:19;33.50;23.80
20610;DHT22;10463;52.378;9.688;2023-07-13T00:28:06;33.50;23.80
20610;DHT22;10463;52.378;9.688;2023-07-13T00:30:50;33.50;23.80
20610;DHT22;10463;52.378;9.688;2023-07-13T00:33:36;33.50;23.80
20610;DHT22;10463;52.378;9.688;2023-07-13T00:36:21;33.50;23.80
20610;DHT22;10463;52.378;9.688;2023-07-13T00:39:06;33.50;23.80
20610;DHT22;10463;52.378;9.688;2023-07-13T00:41:52;33.50;23.90
20610;DHT22;10463;52.378;9.688;2023-07-13T00:44:38;33.50;23.80
20610;DHT22;10463;52.378;9.688;2023-07-13T00:47:24;33.40;23.80
20610;DHT22;10463;52.378;9.688;2023-07-13T00:50:12;33.40;23.80
20610;DHT22;10463;52.378;9.688;2023-07-13T00:52:59;33.40;23.80
20610;DHT22;10463;52.378;9.688;2023-07-13T00:55:44;33.50;23.90
20610;DHT22;10463;52.378;9.688;2023-07-13T00:58:30;33.50;23.90
20610;DHT22;10463;52.378;9.688;2023-07-13T01:01:17;33.40;23.80
20610;DHT22;10463;52.378;9.688;2023-07-13T01:04:02;33.40;23.80
20610;DHT22;10463;52.378;9.688;2023-07-13T01:06:47;33.50;23.90
20610;DHT22;10463;52.378;9.688;2023-07-13T01:09:32;33.40;23.80
20610;DHT22;10463;52.378;9.688;2023-07-13T01:12:17;33.50;23.90
20610;DHT22;10463;52.378;9.688;2023-07-13T01:15:03;33.40;23.80
20610;DHT22;10463;52.378;9.688;2023-07-13T01:17:50;33.40;23.80
20610;DHT22;10463;52.378;9.688;2023-07-13T01:20:35;33.40;23.80
20610;DHT22;10463;52.378;9.688;2023-07-13T01:23:23;33.40;23.80
20610;DHT22;10463;52.378;9.688;2023-07-13T01:26:09;33.40;23.80
20610;DHT22;10463;52.378;9.688;2023-07-13T01:28:55;33.40;23.80
20610;DHT22;10463;52.378;9.688;2023-07-13T01:31:41;33.40;23.80
20610;DHT22;10463;52.378;9.688;2023-07-13T01:34:26;33.40;23.80
20610;DHT22;10463;52.378;9.688;2023-07-13T01:37:11;33.40;23.80
20610;DHT22;10463;52.378;9.688;2023-07-13T01:39:57;33.40;23.80
20610;DHT22;10463;52.378;9.688;2023-07-13T01:42:42;33.40;23.80
20610;DHT22;10463;52.378;9.688;2023-07-13T01:45:27;33.40;23.80
20610;DHT22;10463;52.378;9.688;2023-07-13T01:48:12;33.40;23.80
20610;DHT22;10463;52.378;9.688;2023-07-13T01:50:57;33.40;23.80
20610;DHT22;10463;52.378;9.688;2023-07-13T01:53:42;33.40;23.80
20610;DHT22;10463;52.378;9.688;2023-07-13T01:56:28;33.40;23.80
20610;DHT22;10463;52.378;9.688;2023-07-13T01:59:13;33.40;23.70
20610;DHT22;10463;52.378;9.688;2023-07-13T02:01:58;33.40;23.70
20610;DHT22;10463;52.378;9.688;2023-07-13T02:04:42;33.40;23.70
20610;DHT22;10463;52.378;9.688;2023-07-13T02:07:27;33.40;23.70
20610;DHT22;10463;52.378;9.688;2023-07-13T02:10:12;33.40;24.20
20610;DHT22;10463;52.378;9.688;2023-07-13T02:12:59;33.40;23.70
20610;DHT22;10463;52.378;9.688;2023-07-13T02:15:44;33.40;23.70
20610;DHT22;10463;52.378;9.688;2023-07-13T02:18:28;33.30;23.60
20610;DHT22;10463;52.378;9.688;2023-07-13T02:21:13;33.30;23.70
20610;DHT22;10463;52.378;9.688;2023-07-13T02:23:58;33.40;24.20
20610;DHT22;10463;52.378;9.688;2023-07-13T02:26:44;33.40;23.70
20610;DHT22;10463;52.378;9.688;2023-07-13T02:29:30;33.40;23.70
20610;DHT22;10463;52.378;9.688;2023-07-13T02:32:15;33.30;23.60
20610;DHT22;10463;52.378;9.688;2023-07-13T02:35:01;33.30;23.60
20610;DHT22;10463;52.378;9.688;2023-07-13T02:37:47;33.30;23.60
20610;DHT22;10463;52.378;9.688;2023-07-13T02:40:32;33.20;23.50
20610;DHT22;10463;52.378;9.688;2023-07-13T02:43:20;33.30;23.60
20610;DHT22;10463;52.378;9.688;2023-07-13T02:46:07;33.20;23.50
20610;DHT22;10463;52.378;9.688;2023-07-13T02:48:53;33.30;23.60
20610;DHT22;10463;52.378;9.688;2023-07-13T02:51:37;33.20;23.50
20610;DHT22;10463;52.378;9.688;2023-07-13T02:54:23;33.20;23.60
20610;DHT22;10463;52.378;9.688;2023-07-13T02:57:08;33.20;23.60
20610;DHT22;10463;52.378;9.688;2023-07-13T02:59:52;33.20;23.50
20610;DHT22;10463;52.378;9.688;2023-07-13T03:02:39;33.20;23.60
20610;DHT22;10463;52.378;9.688;2023-07-13T03:05:24;33.20;23.60
20610;DHT22;10463;52.378;9.688;2023-07-13T03:08:09;33.20;23.50
20610;DHT22;10463;52.378;9.688;2023-07-13T03:10:59;33.20;23.50
20610;DHT22;10463;52.378;9.688;2023-07-13T03:13:46;33.10;23.50
20610;DHT22;10463;52.378;9.688;2023-07-13T03:16:32;33.20;23.60
20610;DHT22;10463;52.378;9.688;2023-07-13T03:19:19;33.20;23.60
20610;DHT22;10463;52.378;9.688;2023-07-13T03:22:08;33.10;23.50
20610;DHT22;10463;52.378;9.688;2023-07-13T03:24:55;33.10;23.50
20610;DHT22;10463;52.378;9.688;2023-07-13T03:27:40;33.10;23.50
20610;DHT22;10463;52.378;9.688;2023-07-13T03:30:27;33.10;23.60
20610;DHT22;10463;52.378;9.688;2023-07-13T03:33:12;33.10;23.50
20610;DHT22;10463;52.378;9.688;2023-07-13T03:35:59;33.10;23.60
20610;DHT22;10463;52.378;9.688;2023-07-13T03:38:45;33.10;23.60
20610;DHT22;10463;52.378;9.688;2023-07-13T03:41:32;33.10;23.60
20610;DHT22;10463;52.378;9.688;2023-07-13T03:44:17;33.00;23.50
20610;DHT22;10463;52.378;9.688;2023-07-13T03:47:03;33.10;23.60
20610;DHT22;10463;52.378;9.688;2023-07-13T03:49:50;33.00;23.50
20610;DHT22;10463;52.378;9.688;2023-07-13T03:52:36;33.00;23.50
20610;DHT22;10463;52.378;9.688;2023-07-13T03:55:21;33.00;23.50
20610;DHT22;10463;52.378;9.688;2023-07-13T03:58:30;33.00;23.50
20610;DHT22;10463;52.378;9.688;2023-07-13T04:01:22;33.00;23.50
20610;DHT22;10463;52.378;9.688;2023-07-13T04:04:07;33.00;23.50
20610;DHT22;10463;52.378;9.688;2023-07-13T04:06:52;33.00;23.50
20610;DHT22;10463;52.378;9.688;2023-07-13T04:09:39;33.00;23.50
20610;DHT22;10463;52.378;9.688;2023-07-13T04:12:24;33.00;23.50
20610;DHT22;10463;52.378;9.688;2023-07-13T04:15:09;32.90;23.50
20610;DHT22;10463;52.378;9.688;2023-07-13T04:17:54;32.90;23.50
20610;DHT22;10463;52.378;9.688;2023-07-13T04:20:38;32.90;23.50
20610;DHT22;10463;52.378;9.688;2023-07-13T04:23:23;32.90;23.50
20610;DHT22;10463;52.378;9.688;2023-07-13T04:26:09;32.90;23.50
20610;DHT22;10463;52.378;9.688;2023-07-13T04:28:55;32.90;23.50
20610;DHT22;10463;52.378;9.688;2023-07-13T04:31:40;32.90;23.50
20610;DHT22;10463;52.378;9.688;2023-07-13T04:34:25;32.90;23.50
20610;DHT22;10463;52.378;9.688;2023-07-13T04:37:09;32.90;23.50
20610;DHT22;10463;52.378;9.688;2023-07-13T04:39:54;32.90;23.50
20610;DHT22;10463;52.378;9.688;2023-07-13T04:42:40;32.90;23.50
20610;DHT22;10463;52.378;9.688;2023-07-13T04:45:26;32.90;23.50
20610;DHT22;10463;52.378;9.688;2023-07-13T04:48:11;32.90;24.00
20610;DHT22;10463;52.378;9.688;2023-07-13T04:50:56;32.80;23.50
20610;DHT22;10463;52.378;9.688;2023-07-13T04:53:41;32.80;23.50
20610;DHT22;10463;52.378;9.688;2023-07-13T04:56:26;32.80;23.50
20610;DHT22;10463;52.378;9.688;2023-07-13T04:59:13;32.80;23.50
20610;DHT22;10463;52.378;9.688;2023-07-13T05:01:57;32.80;24.10
20610;DHT22;10463;52.378;9.688;2023-07-13T05:04:42;32.80;23.50
20610;DHT22;10463;52.378;9.688;2023-07-13T05:07:27;32.80;23.50
20610;DHT22;10463;52.378;9.688;2023-07-13T05:10:12;32.80;23.50
20610;DHT22;10463;52.378;9.688;2023-07-13T05:12:57;32.80;23.50
20610;DHT22;10463;52.378;9.688;2023-07-13T05:15:43;32.80;23.50
20610;DHT22;10463;52.378;9.688;2023-07-13T05:18:29;32.80;23.60
20610;DHT22;10463;52.378;9.688;2023-07-13T05:21:14;32.80;23.50
20610;DHT22;10463;52.378;9.688;2023-07-13T05:23:58;32.80;23.50
20610;DHT22;10463;52.378;9.688;2023-07-13T05:26:43;32.80;23.50
20610;DHT22;10463;52.378;9.688;2023-07-13T05:29:28;32.70;23.50
20610;DHT22;10463;52.378;9.688;2023-07-13T05:32:14;32.80;23.50
20610;DHT22;10463;52.378;9.688;2023-07-13T05:34:59;32.80;23.60
20610;DHT22;10463;52.378;9.688;2023-07-13T05:37:44;32.80;23.60
20610;DHT22;10463;52.378;9.688;2023-07-13T05:40:28;32.80;23.60
20610;DHT22;10463;52.378;9.688;2023-07-13T05:43:13;32.80;24.10
20610;DHT22;10463;52.378;9.688;2023-07-13T05:45:58;32.80;23.60
20610;DHT22;10463;52.378;9.688;2023-07-13T05:48:45;32.70;23.50
20610;DHT22;10463;52.378;9.688;2023-07-13T05:51:30;32.70;23.50
20610;DHT22;10463;52.378;9.688;2023-07-13T05:54:14;32.70;24.10
20610;DHT22;10463;52.378;9.688;2023-07-13T05:57:00;32.70;23.50
20610;DHT22;10463;52.378;9.688;2023-07-13T05:59:44;32.70;23.50
20610;DHT22;10463;52.378;9.688;2023-07-13T06:02:29;32.70;23.50
20610;DHT22;10463;52.378;9.688;2023-07-13T06:05:16;32.70;23.50
20610;DHT22;10463;52.378;9.688;2023-07-13T06:08:01;32.70;23.50
20610;DHT22;10463;52.378;9.688;2023-07-13T06:10:45;32.70;23.50
20610;DHT22;10463;52.378;9.688;2023-07-13T06:13:30;32.70;23.50
20610;DHT22;10463;52.378;9.688;2023-07-13T06:16:16;32.70;23.60
20610;DHT22;10463;52.378;9.688;2023-07-13T06:19:01;32.70;23.60
20610;DHT22;10463;52.378;9.688;2023-07-13T06:21:47;32.70;23.50
20610;DHT22;10463;52.378;9.688;2023-07-13T06:24:32;32.60;23.50
20610;DHT22;10463;52.378;9.688;2023-07-13T06:27:17;32.70;23.50
20610;DHT22;10463;52.378;9.688;2023-07-13T06:30:01;32.60;23.50
20610;DHT22;10463;52.378;9.688;2023-07-13T06:32:46;32.70;23.50
20610;DHT22;10463;52.378;9.688;2023-07-13T06:35:31;32.70;23.50
20610;DHT22;10463;52.378;9.688;2023-07-13T06:38:18;32.70;23.60
20610;DHT22;10463;52.378;9.688;2023-07-13T06:41:03;32.70;23.60
20610;DHT22;10463;52.378;9.688;2023-07-13T06:43:48;32.70;23.50
20610;DHT22;10463;52.378;9.688;2023-07-13T06:46:33;32.70;23.50
20610;DHT22;10463;52.378;9.688;2023-07-13T06:49:18;32.70;23.50
20610;DHT22;10463;52.378;9.688;2023-07-13T06:52:03;32.70;23.50
20610;DHT22;10463;52.378;9.688;2023-07-13T06:54:50;32.60;23.40
20610;DHT22;10463;52.378;9.688;2023-07-13T06:57:35;32.60;23.40
20610;DHT22;10463;52.378;9.688;2023-07-13T07:00:19;32.60;23.40
20610;DHT22;10463;52.378;9.688;2023-07-13T07:03:04;32.60;23.40
20610;DHT22;10463;52.378;9.688;2023-07-13T07:05:48;32.60;23.40
20610;DHT22;10463;52.378;9.688;2023-07-13T07:08:33;32.60;23.40
20610;DHT22;10463;52.378;9.688;2023-07-13T07:11:23;32.60;24.00
20610;DHT22;10463;52.378;9.688;2023-07-13T07:14:08;32.60;23.40
20610;DHT22;10463;52.378;9.688;2023-07-13T07:16:53;32.60;23.40
20610;DHT22;10463;52.378;9.688;2023-07-13T07:19:41;32.60;23.40
20610;DHT22;10463;52.378;9.688;2023-07-13T07:22:26;32.60;23.40
20610;DHT22;10463;52.378;9.688;2023-07-13T07:25:12;32.60;23.40
20610;DHT22;10463;52.378;9.688;2023-07-13T07:27:58;32.60;23.40
20610;DHT22;10463;52.378;9.688;2023-07-13T07:30:44;32.60;23.40
20610;DHT22;10463;52.378;9.688;2023-07-13T07:33:29;32.60;23.40
20610;DHT22;10463;52.378;9.688;2023-07-13T07:36:14;32.60;23.40
20610;DHT22;10463;52.378;9.688;2023-07-13T07:38:58;32.60;23.40
20610;DHT22;10463;52.378;9.688;2023-07-13T07:41:43;32.60;23.40
20610;DHT22;10463;52.378;9.688;2023-07-13T07:44:30;32.60;23.40
20610;DHT22;10463;52.378;9.688;2023-07-13T07:47:15;32.60;23.40
20610;DHT22;10463;52.378;9.688;2023-07-13T07:50:00;32.60;23.40
20610;DHT22;10463;52.378;9.688;2023-07-13T07:52:45;32.60;23.40
20610;DHT22;10463;52.378;9.688;2023-07-13T07:55:32;32.60;23.40
20610;DHT22;10463;52.378;9.688;2023-07-13T07:58:17;32.60;23.40
20610;DHT22;10463;52.378;9.688;2023-07-13T08:01:05;32.60;23.40
20610;DHT22;10463;52.378;9.688;2023-07-13T08:03:50;32.60;23.40
20610;DHT22;10463;52.378;9.688;2023-07-13T08:06:36;32.60;23.40
20610;DHT22;10463;52.378;9.688;2023-07-13T08:09:21;32.60;23.50
20610;DHT22;10463;52.378;9.688;2023-07-13T08:12:06;32.60;23.40
20610;DHT22;10463;52.378;9.688;2023-07-13T08:14:51;32.60;23.40
20610;DHT22;10463;52.378;9.688;2023-07-13T08:17:43;32.60;23.40
20610;DHT22;10463;52.378;9.688;2023-07-13T08:20:28;32.60;23.50
20610;DHT22;10463;52.378;9.688;2023-07-13T08:23:12;32.60;23.50
20610;DHT22;10463;52.378;9.688;2023-07-13T08:25:57;32.60;23.50
20610;DHT22;10463;52.378;9.688;2023-07-13T08:28:42;32.60;23.50
20610;DHT22;10463;52.378;9.688;2023-07-13T08:31:27;32.60;23.50
20610;DHT22;10463;52.378;9.688;2023-07-13T08:34:13;32.60;23.50
20610;DHT22;10463;52.378;9.688;2023-07-13T08:36:59;32.60;23.50
20610;DHT22;10463;52.378;9.688;2023-07-13T08:39:44;32.60;23.50
20610;DHT22;10463;52.378;9.688;2023-07-13T08:42:38;32.60;23.50
20610;DHT22;10463;52.378;9.688;2023-07-13T08:45:30;32.60;23.50
20610;DHT22;10463;52.378;9.688;2023-07-13T08:48:21;32.60;23.50
20610;DHT22;10463;52.378;9.688;2023-07-13T08:51:27;32.60;23.50
20610;DHT22;10463;52.378;9.688;2023-07-13T08:54:23;32.60;23.50
20610;DHT22;10463;52.378;9.688;2023-07-13T08:57:13;32.60;23.50
20610;DHT22;10463;52.378;9.688;2023-07-13T08:59:58;32.60;23.50
20610;DHT22;10463;52.378;9.688;2023-07-13T09:02:48;32.60;23.50
20610;DHT22;10463;52.378;9.688;2023-07-13T09:05:40;32.60;23.50
20610;DHT22;10463;52.378;9.688;2023-07-13T09:08:39;32.60;23.50
20610;DHT22;10463;52.378;9.688;2023-07-13T09:11:45;32.60;23.50
20610;DHT22;10463;52.378;9.688;2023-07-13T09:14:42;32.60;23.50
20610;DHT22;10463;52.378;9.688;2023-07-13T09:17:35;32.60;23.50
20610;DHT22;10463;52.378;9.688;2023-07-13T09:20:29;32.60;23.50
20610;DHT22;10463;52.378;9.688;2023-07-13T09:23:19;32.60;23.50
20610;DHT22;10463;52.378;9.688;2023-07-13T09:26:18;32.60;23.50
20610;DHT22;10463;52.378;9.688;2023-07-13T09:29:13;32.60;23.50
20610;DHT22;10463;52.378;9.688;2023-07-13T09:32:02;32.60;23.50
20610;DHT22;10463;52.378;9.688;2023-07-13T09:34:51;32.60;23.50
20610;DHT22;10463;52.378;9.688;2023-07-13T09:37:37;32.60;23.50
20610;DHT22;10463;52.378;9.688;2023-07-13T09:40:28;32.60;23.50
20610;DHT22;10463;52.378;9.688;2023-07-13T09:43:17;32.60;23.50
20610;DHT22;10463;52.378;9.688;2023-07-13T09:46:03;32.70;23.60
20610;DHT22;10463;52.378;9.688;2023-07-13T09:48:49;32.70;23.60
20610;DHT22;10463;52.378;9.688;2023-07-13T09:51:34;32.70;23.60
20610;DHT22;10463;52.378;9.688;2023-07-13T09:54:21;32.70;23.60
20610;DHT22;10463;52.378;9.688;2023-07-13T09:57:14;32.70;23.60
20610;DHT22;10463;52.378;9.688;2023-07-13T10:00:02;32.70;23.60
20610;DHT22;10463;52.378;9.688;2023-07-13T10:03:01;32.70;23.00
20610;DHT22;10463;52.378;9.688;2023-07-13T10:05:49;32.70;22.70
20610;DHT22;10463;52.378;9.688;2023-07-13T10:08:35;32.70;22.50
20610;DHT22;10463;52.378;9.688;2023-07-13T10:11:24;32.60;22.30
20610;DHT22;10463;52.378;9.688;2023-07-13T10:14:14;32.60;22.40
20610;DHT22;10463;52.378;9.688;2023-07-13T10:17:04;32.50;22.40
20610;DHT22;10463;52.378;9.688;2023-07-13T10:19:50;32.50;22.10
20610;DHT22;10463;52.378;9.688;2023-07-13T10:22:42;32.50;22.00
20610;DHT22;10463;52.378;9.688;2023-07-13T10:25:34;32.40;22.10
20610;DHT22;10463;52.378;9.688;2023-07-13T10:28:29;32.30;22.10
20610;DHT22;10463;52.378;9.688;2023-07-13T10:31:16;32.30;22.10
20610;DHT22;10463;52.378;9.688;2023-07-13T10:34:02;32.20;22.20
20610;DHT22;10463;52.378;9.688;2023-07-13T10:36:48;32.20;22.10
20610;DHT22;10463;52.378;9.688;2023-07-13T10:39:34;32.20;22.00
20610;DHT22;10463;52.378;9.688;2023-07-13T10:42:27;32.10;22.00
20610;DHT22;10463;52.378;9.688;2023-07-13T10:45:15;32.10;21.90
20610;DHT22;10463;52.378;9.688;2023-07-13T10:48:01;32.00;22.50
20610;DHT22;10463;52.378;9.688;2023-07-13T10:50:51;32.00;22.00
20610;DHT22;10463;52.378;9.688;2023-07-13T10:53:39;31.90;21.90
20610;DHT22;10463;52.378;9.688;2023-07-13T10:56:28;31.90;21.90
20610;DHT22;10463;52.378;9.688;2023-07-13T10:59:17;31.90;22.00
20610;DHT22;10463;52.378;9.688;2023-07-13T11:02:12;31.80;22.10
20610;DHT22;10463;52.378;9.688;2023-07-13T11:04:58;31.80;22.20
20610;DHT22;10463;52.378;9.688;2023-07-13T11:08:19;31.80;22.20
20610;DHT22;10463;52.378;9.688;2023-07-13T11:11:37;31.70;22.20
20610;DHT22;10463;52.378;9.688;2023-07-13T11:14:30;31.70;22.30
20610;DHT22;10463;52.378;9.688;2023-07-13T11:17:35;31.70;22.40
20610;DHT22;10463;52.378;9.688;2023-07-13T11:20:37;31.70;22.30
20610;DHT22;10463;52.378;9.688;2023-07-13T11:23:31;31.60;22.30
20610;DHT22;10463;52.378;9.688;2023-07-13T11:26:41;31.60;22.40
20610;DHT22;10463;52.378;9.688;2023-07-13T11:29:40;31.60;22.50
20610;DHT22;10463;52.378;9.688;2023-07-13T11:32:31;31.60;22.50
20610;DHT22;10463;52.378;9.688;2023-07-13T11:35:21;31.50;22.40
20610;DHT22;10463;52.378;9.688;2023-07-13T11:38:16;31.50;22.40
20610;DHT22;10463;52.378;9.688;2023-07-13T11:41:17;31.50;22.10
20610;DHT22;10463;52.378;9.688;2023-07-13T11:44:13;31.50;21.90
20610;DHT22;10463;52.378;9.688;2023-07-13T11:47:10;31.50;22.00
20610;DHT22;10463;52.378;9.688;2023-07-13T11:50:16;31.50;22.20
20610;DHT22;10463;52.378;9.688;2023-07-13T11:53:02;31.40;22.40
20610;DHT22;10463;52.378;9.688;2023-07-13T11:55:52;31.40;22.50
20610;DHT22;10463;52.378;9.688;2023-07-13T11:58:41;31.40;22.60
20610;DHT22;10463;52.378;9.688;2023-07-13T12:01:31;31.40;22.70
20610;DHT22;10463;52.378;9.688;2023-07-13T12:04:24;31.40;22.80
20610;DHT22;10463;52.378;9.688;2023-07-13T12:07:17;31.40;22.80
20610;DHT22;10463;52.378;9.688;2023-07-13T12:10:06;31.40;22.90
20610;DHT22;10463;52.378;9.688;2023-07-13T12:13:03;31.40;22.90
20610;DHT22;10463;52.378;9.688;2023-07-13T12:15:49;31.40;23.00
20610;DHT22;10463;52.378;9.688;2023-07-13T12:18:36;31.40;23.00
20610;DHT22;10463;52.378;9.688;2023-07-13T12:21:31;31.50;23.10
20610;DHT22;10463;52.378;9.688;2023-07-13T12:24:18;31.50;23.70
20610;DHT22;10463;52.378;9.688;2023-07-13T12:27:05;31.50;23.20
20610;DHT22;10463;52.378;9.688;2023-07-13T12:29:51;31.50;23.20
20610;DHT22;10463;52.378;9.688;2023-07-13T12:32:39;31.60;23.30
20610;DHT22;10463;52.378;9.688;2023-07-13T12:35:28;31.50;23.20
20610;DHT22;10463;52.378;9.688;2023-07-13T12:38:16;31.60;23.30
20610;DHT22;10463;52.378;9.688;2023-07-13T12:41:01;31.60;23.30
20610;DHT22;10463;52.378;9.688;2023-07-13T12:43:47;31.60;23.30
20610;DHT22;10463;52.378;9.688;2023-07-13T12:46:33;31.60;23.40
20610;DHT22;10463;52.378;9.688;2023-07-13T12:49:24;31.70;23.40
20610;DHT22;10463;52.378;9.688;2023-07-13T12:52:19;31.70;23.40
20610;DHT22;10463;52.378;9.688;2023-07-13T12:55:07;31.70;23.40
20610;DHT22;10463;52.378;9.688;2023-07-13T12:57:59;31.70;23.40
20610;DHT22;10463;52.378;9.688;2023-07-13T13:00:51;31.70;23.40
20610;DHT22;10463;52.378;9.688;2023-07-13T13:03:44;31.80;23.50
20610;DHT22;10463;52.378;9.688;2023-07-13T13:06:31;31.80;23.40
20610;DHT22;10463;52.378;9.688;2023-07-13T13:09:17;31.80;23.50
20610;DHT22;10463;52.378;9.688;2023-07-13T13:12:03;31.80;23.40
20610;DHT22;10463;52.378;9.688;2023-07-13T13:14:48;31.80;23.40
20610;DHT22;10463;52.378;9.688;2023-07-13T13:17:34;31.80;23.40
20610;DHT22;10463;52.378;9.688;2023-07-13T13:20:22;31.90;23.50
20610;DHT22;10463;52.378;9.688;2023-07-13T13:23:12;31.90;23.50
20610;DHT22;10463;52.378;9.688;2023-07-13T13:25:57;31.90;23.50
20610;DHT22;10463;52.378;9.688;2023-07-13T13:28:43;31.90;23.50
20610;DHT22;10463;52.378;9.688;2023-07-13T13:31:28;31.90;23.50
20610;DHT22;10463;52.378;9.688;2023-07-13T13:34:16;31.90;23.60
20610;DHT22;10463;52.378;9.688;2023-07-13T13:37:01;31.90;23.60
20610;DHT22;10463;52.378;9.688;2023-07-13T13:39:48;32.00;23.60
20610;DHT22;10463;52.378;9.688;2023-07-13T13:42:33;32.00;24.20
20610;DHT22;10463;52.378;9.688;2023-07-13T13:45:18;32.00;23.70
20610;DHT22;10463;52.378;9.688;2023-07-13T13:48:05;32.00;23.70
20610;DHT22;10463;52.378;9.688;2023-07-13T13:50:51;32.10;23.70
20610;DHT22;10463;52.378;9.688;2023-07-13T13:53:36;32.00;23.60
20610;DHT22;10463;52.378;9.688;2023-07-13T13:56:22;32.10;23.70
20610;DHT22;10463;52.378;9.688;2023-07-13T13:59:06;32.10;23.70
20610;DHT22;10463;52.378;9.688;2023-07-13T14:01:53;32.10;23.80
20610;DHT22;10463;52.378;9.688;2023-07-13T14:04:37;32.10;23.80
20610;DHT22;10463;52.378;9.688;2023-07-13T14:07:22;32.10;23.80
20610;DHT22;10463;52.378;9.688;2023-07-13T14:10:14;32.10;23.80
20610;DHT22;10463;52.378;9.688;2023-07-13T14:13:00;32.10;23.80
20610;DHT22;10463;52.378;9.688;2023-07-13T14:15:45;32.20;23.80
20610;DHT22;10463;52.378;9.688;2023-07-13T14:18:30;32.20;23.80
20610;DHT22;10463;52.378;9.688;2023-07-13T14:21:16;32.20;23.90
20610;DHT22;10463;52.378;9.688;2023-07-13T14:24:02;32.20;23.90
20610;DHT22;10463;52.378;9.688;2023-07-13T14:26:47;32.20;23.90
20610;DHT22;10463;52.378;9.688;2023-07-13T14:29:34;32.20;23.90
20610;DHT22;10463;52.378;9.688;2023-07-13T14:32:19;32.20;23.90
20610;DHT22;10463;52.378;9.688;2023-07-13T14:35:04;32.20;23.90
20610;DHT22;10463;52.378;9.688;2023-07-13T14:37:49;32.20;24.50
20610;DHT22;10463;52.378;9.688;2023-07-13T14:40:34;32.30;24.00
20610;DHT22;10463;52.378;9.688;2023-07-13T14:43:19;32.30;24.00
20610;DHT22;10463;52.378;9.688;2023-07-13T14:46:09;32.20;23.90
20610;DHT22;10463;52.378;9.688;2023-07-13T14:49:03;32.30;24.00
20610;DHT22;10463;52.378;9.688;2023-07-13T14:51:48;32.30;24.10
20610;DHT22;10463;52.378;9.688;2023-07-13T14:54:33;32.30;24.00
20610;DHT22;10463;52.378;9.688;2023-07-13T14:57:20;32.30;24.00
20610;DHT22;10463;52.378;9.688;2023-07-13T15:00:13;32.30;24.00
20610;DHT22;10463;52.378;9.688;2023-07-13T15:03:01;32.30;24.00
20610;DHT22;10463;52.378;9.688;2023-07-13T15:05:47;32.30;24.00
20610;DHT22;10463;52.378;9.688;2023-07-13T15:08:32;32.30;24.00
20610;DHT22;10463;52.378;9.688;2023-07-13T15:11:17;32.30;24.00
20610;DHT22;10463;52.378;9.688;2023-07-13T15:14:02;32.30;24.00
20610;DHT22;10463;52.378;9.688;2023-07-13T15:16:49;32.30;24.50
20610;DHT22;10463;52.378;9.688;2023-07-13T15:19:36;32.30;24.00
20610;DHT22;10463;52.378;9.688;2023-07-13T15:22:21;32.30;24.00
20610;DHT22;10463;52.378;9.688;2023-07-13T15:25:13;32.30;24.00
20610;DHT22;10463;52.378;9.688;2023-07-13T15:28:00;32.30;24.00
20610;DHT22;10463;52.378;9.688;2023-07-13T15:30:48;32.30;24.00
20610;DHT22;10463;52.378;9.688;2023-07-13T15:33:33;32.30;24.00
20610;DHT22;10463;52.378;9.688;2023-07-13T15:36:21;32.30;24.00
20610;DHT22;10463;52.378;9.688;2023-07-13T15:39:06;32.30;24.00
20610;DHT22;10463;52.378;9.688;2023-07-13T15:41:52;32.30;24.00
20610;DHT22;10463;52.378;9.688;2023-07-13T15:44:38;32.30;24.00
20610;DHT22;10463;52.378;9.688;2023-07-13T15:47:23;32.30;24.00
20610;DHT22;10463;52.378;9.688;2023-07-13T15:50:12;32.30;24.00
20610;DHT22;10463;52.378;9.688;2023-07-13T15:52:58;32.30;24.00
20610;DHT22;10463;52.378;9.688;2023-07-13T15:55:44;32.30;24.00
20610;DHT22;10463;52.378;9.688;2023-07-13T15:58:29;32.30;24.00
20610;DHT22;10463;52.378;9.688;2023-07-13T16:01:14;32.30;24.50
20610;DHT22;10463;52.378;9.688;2023-07-13T16:03:59;32.30;24.00
20610;DHT22;10463;52.378;9.688;2023-07-13T16:06:44;32.30;24.00
20610;DHT22;10463;52.378;9.688;2023-07-13T16:09:31;32.30;24.00
20610;DHT22;10463;52.378;9.688;2023-07-13T16:12:16;32.30;24.00
20610;DHT22;10463;52.378;9.688;2023-07-13T16:15:01;32.30;24.00
20610;DHT22;10463;52.378;9.688;2023-07-13T16:17:48;32.30;24.00
20610;DHT22;10463;52.378;9.688;2023-07-13T16:20:33;32.30;24.00
20610;DHT22;10463;52.378;9.688;2023-07-13T16:23:18;32.30;24.00
20610;DHT22;10463;52.378;9.688;2023-07-13T16:26:11;32.30;24.00
20610;DHT22;10463;52.378;9.688;2023-07-13T16:29:01;32.30;24.00
20610;DHT22;10463;52.378;9.688;2023-07-13T16:31:57;32.40;24.00
20610;DHT22;10463;52.378;9.688;2023-07-13T16:34:44;32.40;24.00
20610;DHT22;10463;52.378;9.688;2023-07-13T16:37:29;32.40;24.00
20610;DHT22;10463;52.378;9.688;2023-07-13T16:40:23;32.40;24.00
20610;DHT22;10463;52.378;9.688;2023-07-13T16:43:13;32.30;24.00
20610;DHT22;10463;52.378;9.688;2023-07-13T16:45:59;32.40;24.00
20610;DHT22;10463;52.378;9.688;2023-07-13T16:48:47;32.40;24.00
20610;DHT22;10463;52.378;9.688;2023-07-13T16:51:32;32.40;24.00
20610;DHT22;10463;52.378;9.688;2023-07-13T16:54:16;32.30;24.00
20610;DHT22;10463;52.378;9.688;2023-07-13T16:57:12;32.40;24.00
20610;DHT22;10463;52.378;9.688;2023-07-13T17:00:00;32.30;24.00
20610;DHT22;10463;52.378;9.688;2023-07-13T17:02:46;32.30;24.00
20610;DHT22;10463;52.378;9.688;2023-07-13T17:05:35;32.40;24.00
20610;DHT22;10463;52.378;9.688;2023-07-13T17:08:26;32.30;24.00
20610;DHT22;10463;52.378;9.688;2023-07-13T17:11:12;32.30;24.00
20610;DHT22;10463;52.378;9.688;2023-07-13T17:13:57;32.40;24.00
20610;DHT22;10463;52.378;9.688;2023-07-13T17:16:43;32.30;24.00
20610;DHT22;10463;52.378;9.688;2023-07-13T17:19:30;32.30;24.00
20610;DHT22;10463;52.378;9.688;2023-07-13T17:22:15;32.30;24.00
20610;DHT22;10463;52.378;9.688;2023-07-13T17:25:00;32.30;24.00
20610;DHT22;10463;52.378;9.688;2023-07-13T17:27:46;32.30;24.00
20610;DHT22;10463;52.378;9.688;2023-07-13T17:30:31;32.30;24.00
20610;DHT22;10463;52.378;9.688;2023-07-13T17:33:27;32.30;24.00
20610;DHT22;10463;52.378;9.688;2023-07-13T17:36:15;32.30;24.00